CheckWX is a tool to help pilots better visualize weather data.  It is not intended as a substitute for an official pre-flight weather briefing.

02:11:51 UTC

KVQQ METAR
Cecil Airport
Jacksonville, Florida, USA
Current

1 hour ago

KVQQ 120050Z 09010KT 10SM SCT050 26/22 A2988
Observed
Jul-12 @ 00:50 UTC
Wind
  • 090° at 10 KTS
Visibility
10 SM
Flight Rules
VFR
Cloud Levels
  • Scattered at 5,000' AGL
Temperature
26°C / 79°F
Dewpoint
22°C / 72°F
Humidity
79%
Altimeter
29.88" Hg
Pressure
1011.82 hPa
Previous

2 hours ago

KVQQ 112350Z 09010KT 10SM SCT050 28/22 A2986
Observed
Jul-11 @ 23:50 UTC
Wind
  • 090° at 10 KTS
Visibility
10 SM
Flight Rules
VFR
Cloud Levels
  • Scattered at 5,000' AGL
Temperature
28°C / 82°F
Dewpoint
22°C / 72°F
Humidity
70%
Altimeter
29.86" Hg
Pressure
1011.22 hPa
Previous

3 hours ago

KVQQ 112250Z 31009KT 10SM SCT050 35/22 A2982
Observed
Jul-11 @ 22:50 UTC
Wind
  • 310° at 9 KTS
Visibility
10 SM
Flight Rules
VFR
Cloud Levels
  • Scattered at 5,000' AGL
Temperature
35°C / 95°F
Dewpoint
22°C / 72°F
Humidity
47%
Altimeter
29.82" Hg
Pressure
1009.82 hPa